This is the latest recevied weather packets stored in our database for station/object HG6IEP-10. If no packets are shown the sender has not sent any weather packets the latest 10 day(s).
| Time | Temp. | Humidity | Pressure | Rain* | Wind** | Luminosity | Snow |
|---|---|---|---|---|---|---|---|
| 1777551746 | 29.44° C | 20% | 1003 hPa | - | - | - | - |
| 1777548142 | 27.22° C | 22% | 1003 hPa | - | - | - | - |
| 1777544538 | 23.33° C | 25% | 1004 hPa | - | - | - | - |
| 1777540934 | 20.56° C | 26% | 1004 hPa | - | - | - | - |
| 1777537330 | 16.67° C | 28% | 1004 hPa | - | - | - | - |
| 1777533726 | 12.78° C | 31% | 1004 hPa | - | - | - | - |
| 1777530122 | 7.78° C | 35% | 1005 hPa | - | - | - | - |
| 1777526518 | 3.33° C | 40% | 1005 hPa | - | - | - | - |
| 1777522914 | 1.67° C | 42% | 1005 hPa | - | - | - | - |
| 1777519310 | 2.22° C | 42% | 1004 hPa | - | - | - | - |
| 1777515706 | 3.89° C | 42% | 1004 hPa | - | - | - | - |
| 1777512102 | 6.11° C | 40% | 1004 hPa | - | - | - | - |
| 1777508498 | 7.78° C | 38% | 1003 hPa | - | - | - | - |
| 1777504894 | 9.44° C | 38% | 1003 hPa | - | - | - | - |
| 1777501290 | 10.56° C | 37% | 1003 hPa | - | - | - | - |
| 1777497686 | 12.78° C | 36% | 1002 hPa | - | - | - | - |
| 1777494082 | 13.89° C | 36% | 1001 hPa | - | - | - | - |
| 1777490478 | 15.56° C | 36% | 1001 hPa | - | - | - | - |
| 1777486874 | 17.78° C | 34% | 1000 hPa | - | - | - | - |
| 1777483270 | 20° C | 33% | 999 hPa | - | - | - | - |
| 1777479666 | 23.89° C | 31% | 998 hPa | - | - | - | - |
| 1777476062 | 28.33° C | 26% | 998 hPa | - | - | - | - |
| 1777472458 | 35° C | 21% | 997 hPa | - | - | - | - |
| 1777468854 | 33.33° C | 21% | 997 hPa | - | - | - | - |
| 1777465250 | 31.67° C | 21% | 997 hPa | - | - | - | - |
* Rain since midnight (hover to see other rain measurements)
** Current wind speed in m/s (hover to see current wind gust speed)